sensor_id;sensor_type;location;lat;lon;timestamp;temperature;humidity
60909;DHT22;46780;48.128;-1.704;2022-08-01T00:01:34;23.40;75.40
60909;DHT22;46780;48.128;-1.704;2022-08-01T00:04:02;23.40;75.40
60909;DHT22;46780;48.128;-1.704;2022-08-01T00:06:29;23.30;75.50
60909;DHT22;46780;48.128;-1.704;2022-08-01T00:08:56;23.40;75.60
60909;DHT22;46780;48.128;-1.704;2022-08-01T00:11:22;23.30;75.10
60909;DHT22;46780;48.128;-1.704;2022-08-01T00:13:50;23.30;75.50
60909;DHT22;46780;48.128;-1.704;2022-08-01T00:16:17;23.30;75.20
60909;DHT22;46780;48.128;-1.704;2022-08-01T00:18:43;23.30;75.40
60909;DHT22;46780;48.128;-1.704;2022-08-01T00:21:10;23.30;75.50
60909;DHT22;46780;48.128;-1.704;2022-08-01T00:23:36;23.20;75.90
60909;DHT22;46780;48.128;-1.704;2022-08-01T00:26:03;23.30;75.30
60909;DHT22;46780;48.128;-1.704;2022-08-01T00:28:29;23.30;75.30
60909;DHT22;46780;48.128;-1.704;2022-08-01T00:30:57;23.30;75.30
60909;DHT22;46780;48.128;-1.704;2022-08-01T00:33:24;23.30;75.30
60909;DHT22;46780;48.128;-1.704;2022-08-01T00:35:50;23.20;75.30
60909;DHT22;46780;48.128;-1.704;2022-08-01T00:38:17;23.20;75.60
60909;DHT22;46780;48.128;-1.704;2022-08-01T00:40:43;23.30;75.50
60909;DHT22;46780;48.128;-1.704;2022-08-01T00:43:10;23.20;75.50
60909;DHT22;46780;48.128;-1.704;2022-08-01T00:45:36;23.20;75.80
60909;DHT22;46780;48.128;-1.704;2022-08-01T00:48:05;23.20;75.90
60909;DHT22;46780;48.128;-1.704;2022-08-01T00:50:31;23.10;75.90
60909;DHT22;46780;48.128;-1.704;2022-08-01T00:52:58;23.10;76.40
60909;DHT22;46780;48.128;-1.704;2022-08-01T00:55:26;23.00;76.60
60909;DHT22;46780;48.128;-1.704;2022-08-01T00:57:53;23.00;77.10
60909;DHT22;46780;48.128;-1.704;2022-08-01T01:00:20;23.00;77.00
60909;DHT22;46780;48.128;-1.704;2022-08-01T01:02:46;23.10;76.70
60909;DHT22;46780;48.128;-1.704;2022-08-01T01:05:14;23.10;77.50
60909;DHT22;46780;48.128;-1.704;2022-08-01T01:07:45;23.10;76.50
60909;DHT22;46780;48.128;-1.704;2022-08-01T01:10:17;23.20;76.00
60909;DHT22;46780;48.128;-1.704;2022-08-01T01:12:51;23.10;76.00
60909;DHT22;46780;48.128;-1.704;2022-08-01T01:15:22;23.10;75.90
60909;DHT22;46780;48.128;-1.704;2022-08-01T01:17:56;23.20;75.60
60909;DHT22;46780;48.128;-1.704;2022-08-01T01:20:31;23.10;76.00
60909;DHT22;46780;48.128;-1.704;2022-08-01T01:23:10;23.00;76.30
60909;DHT22;46780;48.128;-1.704;2022-08-01T01:25:46;23.10;75.90
60909;DHT22;46780;48.128;-1.704;2022-08-01T01:28:20;23.10;76.00
60909;DHT22;46780;48.128;-1.704;2022-08-01T01:30:51;23.00;76.20
60909;DHT22;46780;48.128;-1.704;2022-08-01T01:33:21;23.10;76.10
60909;DHT22;46780;48.128;-1.704;2022-08-01T01:35:52;23.10;76.20
60909;DHT22;46780;48.128;-1.704;2022-08-01T01:38:21;23.10;76.00
60909;DHT22;46780;48.128;-1.704;2022-08-01T01:40:51;23.10;75.80
60909;DHT22;46780;48.128;-1.704;2022-08-01T01:43:19;23.20;75.60
60909;DHT22;46780;48.128;-1.704;2022-08-01T01:45:47;23.10;75.50
60909;DHT22;46780;48.128;-1.704;2022-08-01T01:48:18;23.10;76.00
60909;DHT22;46780;48.128;-1.704;2022-08-01T01:50:47;23.10;76.00
60909;DHT22;46780;48.128;-1.704;2022-08-01T01:53:15;23.10;76.00
60909;DHT22;46780;48.128;-1.704;2022-08-01T01:55:46;23.10;75.70
60909;DHT22;46780;48.128;-1.704;2022-08-01T01:58:15;23.10;75.60
60909;DHT22;46780;48.128;-1.704;2022-08-01T02:00:44;23.00;75.90
60909;DHT22;46780;48.128;-1.704;2022-08-01T02:03:12;23.10;76.00
60909;DHT22;46780;48.128;-1.704;2022-08-01T02:05:41;23.10;75.70
60909;DHT22;46780;48.128;-1.704;2022-08-01T02:08:08;23.00;76.00
60909;DHT22;46780;48.128;-1.704;2022-08-01T02:10:36;23.00;76.10
60909;DHT22;46780;48.128;-1.704;2022-08-01T02:13:04;23.10;76.10
60909;DHT22;46780;48.128;-1.704;2022-08-01T02:15:33;23.10;75.60
60909;DHT22;46780;48.128;-1.704;2022-08-01T02:18:02;23.00;76.10
60909;DHT22;46780;48.128;-1.704;2022-08-01T02:20:29;23.00;76.10
60909;DHT22;46780;48.128;-1.704;2022-08-01T02:23:00;23.00;76.30
60909;DHT22;46780;48.128;-1.704;2022-08-01T02:25:32;23.00;75.80
60909;DHT22;46780;48.128;-1.704;2022-08-01T02:28:04;23.00;75.50
60909;DHT22;46780;48.128;-1.704;2022-08-01T02:30:34;23.00;75.80
60909;DHT22;46780;48.128;-1.704;2022-08-01T02:33:04;22.90;76.00
60909;DHT22;46780;48.128;-1.704;2022-08-01T02:35:34;22.80;76.20
60909;DHT22;46780;48.128;-1.704;2022-08-01T02:38:04;22.80;76.60
60909;DHT22;46780;48.128;-1.704;2022-08-01T02:40:33;22.70;76.80
60909;DHT22;46780;48.128;-1.704;2022-08-01T02:43:03;22.70;77.00
60909;DHT22;46780;48.128;-1.704;2022-08-01T02:45:31;22.60;76.90
60909;DHT22;46780;48.128;-1.704;2022-08-01T02:48:01;22.60;76.80
60909;DHT22;46780;48.128;-1.704;2022-08-01T02:50:32;22.50;76.70
60909;DHT22;46780;48.128;-1.704;2022-08-01T02:53:02;22.50;76.50
60909;DHT22;46780;48.128;-1.704;2022-08-01T02:55:29;22.40;76.70
60909;DHT22;46780;48.128;-1.704;2022-08-01T02:57:59;22.30;76.80
60909;DHT22;46780;48.128;-1.704;2022-08-01T03:00:26;22.30;77.20
60909;DHT22;46780;48.128;-1.704;2022-08-01T03:02:54;22.30;77.20
60909;DHT22;46780;48.128;-1.704;2022-08-01T03:05:22;22.30;77.20
60909;DHT22;46780;48.128;-1.704;2022-08-01T03:07:51;22.30;78.10
60909;DHT22;46780;48.128;-1.704;2022-08-01T03:10:20;22.40;77.10
60909;DHT22;46780;48.128;-1.704;2022-08-01T03:12:48;22.40;76.60
60909;DHT22;46780;48.128;-1.704;2022-08-01T03:15:16;22.40;76.80
60909;DHT22;46780;48.128;-1.704;2022-08-01T03:17:44;22.40;76.50
60909;DHT22;46780;48.128;-1.704;2022-08-01T03:20:14;22.40;76.20
60909;DHT22;46780;48.128;-1.704;2022-08-01T03:22:42;22.40;76.30
60909;DHT22;46780;48.128;-1.704;2022-08-01T03:25:11;22.40;76.00
60909;DHT22;46780;48.128;-1.704;2022-08-01T03:27:40;22.30;75.70
60909;DHT22;46780;48.128;-1.704;2022-08-01T03:30:09;22.40;75.40
60909;DHT22;46780;48.128;-1.704;2022-08-01T03:32:36;22.40;74.90
60909;DHT22;46780;48.128;-1.704;2022-08-01T03:35:04;22.40;74.60
60909;DHT22;46780;48.128;-1.704;2022-08-01T03:37:36;22.40;74.70
60909;DHT22;46780;48.128;-1.704;2022-08-01T03:40:06;22.40;74.40
60909;DHT22;46780;48.128;-1.704;2022-08-01T03:42:37;22.40;74.30
60909;DHT22;46780;48.128;-1.704;2022-08-01T03:45:08;22.40;74.20
60909;DHT22;46780;48.128;-1.704;2022-08-01T03:47:35;22.50;73.60
60909;DHT22;46780;48.128;-1.704;2022-08-01T03:50:03;22.50;73.00
60909;DHT22;46780;48.128;-1.704;2022-08-01T03:52:32;22.40;73.40
60909;DHT22;46780;48.128;-1.704;2022-08-01T03:55:03;22.40;73.40
60909;DHT22;46780;48.128;-1.704;2022-08-01T03:57:31;22.40;73.20
60909;DHT22;46780;48.128;-1.704;2022-08-01T03:59:58;22.50;72.90
60909;DHT22;46780;48.128;-1.704;2022-08-01T04:02:27;22.50;72.50
60909;DHT22;46780;48.128;-1.704;2022-08-01T04:04:54;22.40;72.80
60909;DHT22;46780;48.128;-1.704;2022-08-01T04:07:23;22.30;73.20
60909;DHT22;46780;48.128;-1.704;2022-08-01T04:09:50;22.30;73.40
60909;DHT22;46780;48.128;-1.704;2022-08-01T04:12:16;22.30;73.70
60909;DHT22;46780;48.128;-1.704;2022-08-01T04:14:44;22.30;73.60
60909;DHT22;46780;48.128;-1.704;2022-08-01T04:17:11;22.20;73.60
60909;DHT22;46780;48.128;-1.704;2022-08-01T04:19:39;22.20;73.70
60909;DHT22;46780;48.128;-1.704;2022-08-01T04:22:07;22.10;73.80
60909;DHT22;46780;48.128;-1.704;2022-08-01T04:24:35;22.10;74.20
60909;DHT22;46780;48.128;-1.704;2022-08-01T04:27:06;22.10;74.20
60909;DHT22;46780;48.128;-1.704;2022-08-01T04:29:34;22.00;74.40
60909;DHT22;46780;48.128;-1.704;2022-08-01T04:32:02;21.90;75.10
60909;DHT22;46780;48.128;-1.704;2022-08-01T04:34:30;21.90;75.40
60909;DHT22;46780;48.128;-1.704;2022-08-01T04:37:00;21.90;75.60
60909;DHT22;46780;48.128;-1.704;2022-08-01T04:39:29;21.80;76.00
60909;DHT22;46780;48.128;-1.704;2022-08-01T04:41:58;21.90;76.10
60909;DHT22;46780;48.128;-1.704;2022-08-01T04:44:26;21.90;76.00
60909;DHT22;46780;48.128;-1.704;2022-08-01T04:46:53;21.90;76.30
60909;DHT22;46780;48.128;-1.704;2022-08-01T04:49:21;21.80;76.50
60909;DHT22;46780;48.128;-1.704;2022-08-01T04:51:51;21.80;76.70
60909;DHT22;46780;48.128;-1.704;2022-08-01T04:54:19;21.80;76.80
60909;DHT22;46780;48.128;-1.704;2022-08-01T04:56:46;21.70;77.00
60909;DHT22;46780;48.128;-1.704;2022-08-01T04:59:12;21.80;76.70
60909;DHT22;46780;48.128;-1.704;2022-08-01T05:01:39;21.80;76.70
60909;DHT22;46780;48.128;-1.704;2022-08-01T05:04:05;21.90;76.50
60909;DHT22;46780;48.128;-1.704;2022-08-01T05:06:32;21.90;76.40
60909;DHT22;46780;48.128;-1.704;2022-08-01T05:08:58;21.90;75.90
60909;DHT22;46780;48.128;-1.704;2022-08-01T05:11:26;21.90;75.00
60909;DHT22;46780;48.128;-1.704;2022-08-01T05:13:52;21.90;75.20
60909;DHT22;46780;48.128;-1.704;2022-08-01T05:16:19;21.80;75.60
60909;DHT22;46780;48.128;-1.704;2022-08-01T05:18:45;21.80;75.40
60909;DHT22;46780;48.128;-1.704;2022-08-01T05:21:12;21.90;75.10
60909;DHT22;46780;48.128;-1.704;2022-08-01T05:23:38;21.90;76.00
60909;DHT22;46780;48.128;-1.704;2022-08-01T05:26:05;21.80;75.60
60909;DHT22;46780;48.128;-1.704;2022-08-01T05:28:32;21.80;75.70
60909;DHT22;46780;48.128;-1.704;2022-08-01T05:30:59;21.70;75.90
60909;DHT22;46780;48.128;-1.704;2022-08-01T05:33:26;21.70;76.00
60909;DHT22;46780;48.128;-1.704;2022-08-01T05:35:52;21.70;76.40
60909;DHT22;46780;48.128;-1.704;2022-08-01T05:38:19;21.70;76.20
60909;DHT22;46780;48.128;-1.704;2022-08-01T05:40:45;21.80;76.20
60909;DHT22;46780;48.128;-1.704;2022-08-01T05:43:12;21.80;75.70
60909;DHT22;46780;48.128;-1.704;2022-08-01T05:45:40;21.80;75.70
60909;DHT22;46780;48.128;-1.704;2022-08-01T05:48:06;21.90;75.50
60909;DHT22;46780;48.128;-1.704;2022-08-01T05:50:33;21.90;75.50
60909;DHT22;46780;48.128;-1.704;2022-08-01T05:53:01;21.90;75.20
60909;DHT22;46780;48.128;-1.704;2022-08-01T05:55:28;21.90;75.50
60909;DHT22;46780;48.128;-1.704;2022-08-01T05:57:54;21.90;75.70
60909;DHT22;46780;48.128;-1.704;2022-08-01T06:00:21;22.00;75.60
60909;DHT22;46780;48.128;-1.704;2022-08-01T06:02:49;22.00;74.90
60909;DHT22;46780;48.128;-1.704;2022-08-01T06:05:15;22.00;74.90
60909;DHT22;46780;48.128;-1.704;2022-08-01T06:07:42;22.00;75.30
60909;DHT22;46780;48.128;-1.704;2022-08-01T06:10:09;22.00;75.50
60909;DHT22;46780;48.128;-1.704;2022-08-01T06:12:36;21.80;75.90
60909;DHT22;46780;48.128;-1.704;2022-08-01T06:15:03;21.80;76.40
60909;DHT22;46780;48.128;-1.704;2022-08-01T06:17:30;21.80;76.90
60909;DHT22;46780;48.128;-1.704;2022-08-01T06:19:58;21.80;77.00
60909;DHT22;46780;48.128;-1.704;2022-08-01T06:22:24;21.80;76.90
60909;DHT22;46780;48.128;-1.704;2022-08-01T06:24:51;21.80;76.80
60909;DHT22;46780;48.128;-1.704;2022-08-01T06:27:17;21.80;77.30
60909;DHT22;46780;48.128;-1.704;2022-08-01T06:29:44;21.70;77.60
60909;DHT22;46780;48.128;-1.704;2022-08-01T06:32:11;21.80;77.50
60909;DHT22;46780;48.128;-1.704;2022-08-01T06:34:37;21.80;77.50
60909;DHT22;46780;48.128;-1.704;2022-08-01T06:37:05;21.80;77.80
60909;DHT22;46780;48.128;-1.704;2022-08-01T06:39:31;21.90;77.60
60909;DHT22;46780;48.128;-1.704;2022-08-01T06:41:58;22.00;76.90
60909;DHT22;46780;48.128;-1.704;2022-08-01T06:44:24;22.00;76.70
60909;DHT22;46780;48.128;-1.704;2022-08-01T06:46:51;22.00;76.00
60909;DHT22;46780;48.128;-1.704;2022-08-01T06:49:17;22.00;76.20
60909;DHT22;46780;48.128;-1.704;2022-08-01T06:51:43;22.00;75.70
60909;DHT22;46780;48.128;-1.704;2022-08-01T06:54:12;22.10;75.40
60909;DHT22;46780;48.128;-1.704;2022-08-01T06:56:38;22.10;74.70
60909;DHT22;46780;48.128;-1.704;2022-08-01T06:59:04;22.20;74.50
60909;DHT22;46780;48.128;-1.704;2022-08-01T07:01:31;22.10;74.50
60909;DHT22;46780;48.128;-1.704;2022-08-01T07:03:57;22.20;74.20
60909;DHT22;46780;48.128;-1.704;2022-08-01T07:06:25;22.20;73.90
60909;DHT22;46780;48.128;-1.704;2022-08-01T07:08:52;22.00;74.10
60909;DHT22;46780;48.128;-1.704;2022-08-01T07:11:21;21.90;75.10
60909;DHT22;46780;48.128;-1.704;2022-08-01T07:13:48;21.80;75.50
60909;DHT22;46780;48.128;-1.704;2022-08-01T07:16:15;21.80;75.50
60909;DHT22;46780;48.128;-1.704;2022-08-01T07:18:42;21.70;76.10
60909;DHT22;46780;48.128;-1.704;2022-08-01T07:21:08;21.80;75.90
60909;DHT22;46780;48.128;-1.704;2022-08-01T07:23:35;21.80;75.40
60909;DHT22;46780;48.128;-1.704;2022-08-01T07:26:03;21.80;75.20
60909;DHT22;46780;48.128;-1.704;2022-08-01T07:28:31;21.80;75.00
60909;DHT22;46780;48.128;-1.704;2022-08-01T07:30:57;21.90;74.70
60909;DHT22;46780;48.128;-1.704;2022-08-01T07:33:24;21.80;74.70
60909;DHT22;46780;48.128;-1.704;2022-08-01T07:35:50;21.80;75.00
60909;DHT22;46780;48.128;-1.704;2022-08-01T07:38:17;21.80;75.30
60909;DHT22;46780;48.128;-1.704;2022-08-01T07:40:44;21.90;75.20
60909;DHT22;46780;48.128;-1.704;2022-08-01T07:43:10;21.90;75.30
60909;DHT22;46780;48.128;-1.704;2022-08-01T07:45:39;21.90;75.20
60909;DHT22;46780;48.128;-1.704;2022-08-01T07:48:07;21.90;75.10
60909;DHT22;46780;48.128;-1.704;2022-08-01T07:50:34;22.00;74.70
60909;DHT22;46780;48.128;-1.704;2022-08-01T07:53:01;22.10;73.90
60909;DHT22;46780;48.128;-1.704;2022-08-01T07:55:27;22.10;73.70
60909;DHT22;46780;48.128;-1.704;2022-08-01T07:57:54;22.20;73.80
60909;DHT22;46780;48.128;-1.704;2022-08-01T08:00:20;22.20;73.30
60909;DHT22;46780;48.128;-1.704;2022-08-01T08:02:48;22.20;73.20
60909;DHT22;46780;48.128;-1.704;2022-08-01T08:05:14;22.10;73.20
60909;DHT22;46780;48.128;-1.704;2022-08-01T08:07:41;22.10;73.60
60909;DHT22;46780;48.128;-1.704;2022-08-01T08:10:08;22.10;73.40
60909;DHT22;46780;48.128;-1.704;2022-08-01T08:12:34;22.20;73.40
60909;DHT22;46780;48.128;-1.704;2022-08-01T08:15:01;22.20;72.90
60909;DHT22;46780;48.128;-1.704;2022-08-01T08:17:28;22.20;72.60
60909;DHT22;46780;48.128;-1.704;2022-08-01T08:19:55;22.10;73.10
60909;DHT22;46780;48.128;-1.704;2022-08-01T08:22:22;22.10;73.50
60909;DHT22;46780;48.128;-1.704;2022-08-01T08:24:48;22.10;73.70
60909;DHT22;46780;48.128;-1.704;2022-08-01T08:27:15;22.20;73.20
60909;DHT22;46780;48.128;-1.704;2022-08-01T08:29:42;22.20;73.20
60909;DHT22;46780;48.128;-1.704;2022-08-01T08:32:08;22.30;72.60
60909;DHT22;46780;48.128;-1.704;2022-08-01T08:34:35;22.30;72.00
60909;DHT22;46780;48.128;-1.704;2022-08-01T08:37:03;22.20;72.80
60909;DHT22;46780;48.128;-1.704;2022-08-01T08:39:29;22.30;72.80
60909;DHT22;46780;48.128;-1.704;2022-08-01T08:41:56;22.30;72.80
60909;DHT22;46780;48.128;-1.704;2022-08-01T08:44:25;22.30;72.90
60909;DHT22;46780;48.128;-1.704;2022-08-01T08:46:52;22.50;71.70
60909;DHT22;46780;48.128;-1.704;2022-08-01T08:49:20;22.40;71.80
60909;DHT22;46780;48.128;-1.704;2022-08-01T08:51:50;22.50;72.10
60909;DHT22;46780;48.128;-1.704;2022-08-01T08:54:19;22.60;70.40
60909;DHT22;46780;48.128;-1.704;2022-08-01T08:56:46;22.70;70.40
60909;DHT22;46780;48.128;-1.704;2022-08-01T08:59:13;22.80;69.30
60909;DHT22;46780;48.128;-1.704;2022-08-01T09:01:40;22.80;69.20
60909;DHT22;46780;48.128;-1.704;2022-08-01T09:04:07;22.90;69.30
60909;DHT22;46780;48.128;-1.704;2022-08-01T09:06:34;23.10;68.80
60909;DHT22;46780;48.128;-1.704;2022-08-01T09:09:00;23.20;67.40
60909;DHT22;46780;48.128;-1.704;2022-08-01T09:11:28;23.30;67.30
60909;DHT22;46780;48.128;-1.704;2022-08-01T09:14:07;23.40;66.40
60909;DHT22;46780;48.128;-1.704;2022-08-01T09:16:35;23.50;65.70
60909;DHT22;46780;48.128;-1.704;2022-08-01T09:19:10;23.60;65.20
60909;DHT22;46780;48.128;-1.704;2022-08-01T09:21:37;23.50;65.50
60909;DHT22;46780;48.128;-1.704;2022-08-01T09:24:15;23.50;65.70
60909;DHT22;46780;48.128;-1.704;2022-08-01T09:26:43;23.60;65.80
60909;DHT22;46780;48.128;-1.704;2022-08-01T09:29:19;23.80;64.90
60909;DHT22;46780;48.128;-1.704;2022-08-01T09:31:46;23.80;64.90
60909;DHT22;46780;48.128;-1.704;2022-08-01T09:34:12;23.80;64.30
60909;DHT22;46780;48.128;-1.704;2022-08-01T09:36:49;23.90;64.10
60909;DHT22;46780;48.128;-1.704;2022-08-01T09:39:17;24.00;63.10
60909;DHT22;46780;48.128;-1.704;2022-08-01T09:41:46;23.90;63.80
60909;DHT22;46780;48.128;-1.704;2022-08-01T09:44:13;23.80;64.40
60909;DHT22;46780;48.128;-1.704;2022-08-01T09:46:50;24.00;63.70
60909;DHT22;46780;48.128;-1.704;2022-08-01T09:49:27;24.10;63.40
60909;DHT22;46780;48.128;-1.704;2022-08-01T09:51:54;24.20;62.80
60909;DHT22;46780;48.128;-1.704;2022-08-01T09:54:29;24.30;62.80
60909;DHT22;46780;48.128;-1.704;2022-08-01T09:57:10;24.50;62.50
60909;DHT22;46780;48.128;-1.704;2022-08-01T09:59:38;24.60;61.90
60909;DHT22;46780;48.128;-1.704;2022-08-01T10:02:04;24.80;60.60
60909;DHT22;46780;48.128;-1.704;2022-08-01T10:04:31;24.90;60.40
60909;DHT22;46780;48.128;-1.704;2022-08-01T10:07:04;25.00;59.80
60909;DHT22;46780;48.128;-1.704;2022-08-01T10:09:33;25.00;59.60
60909;DHT22;46780;48.128;-1.704;2022-08-01T10:12:02;25.20;59.10
60909;DHT22;46780;48.128;-1.704;2022-08-01T10:14:29;25.30;57.90
60909;DHT22;46780;48.128;-1.704;2022-08-01T10:16:57;25.30;58.20
60909;DHT22;46780;48.128;-1.704;2022-08-01T10:19:26;25.30;58.70
60909;DHT22;46780;48.128;-1.704;2022-08-01T10:21:54;25.40;57.90
60909;DHT22;46780;48.128;-1.704;2022-08-01T10:24:22;25.50;57.50
60909;DHT22;46780;48.128;-1.704;2022-08-01T10:26:52;25.50;57.70
60909;DHT22;46780;48.128;-1.704;2022-08-01T10:29:20;25.60;57.30
60909;DHT22;46780;48.128;-1.704;2022-08-01T10:31:47;25.70;57.60
60909;DHT22;46780;48.128;-1.704;2022-08-01T10:34:16;25.80;56.40
60909;DHT22;46780;48.128;-1.704;2022-08-01T10:36:42;25.90;56.60
60909;DHT22;46780;48.128;-1.704;2022-08-01T10:39:10;25.80;55.90
60909;DHT22;46780;48.128;-1.704;2022-08-01T10:41:38;25.70;56.30
60909;DHT22;46780;48.128;-1.704;2022-08-01T10:44:06;25.70;56.20
60909;DHT22;46780;48.128;-1.704;2022-08-01T10:46:38;25.70;56.30
60909;DHT22;46780;48.128;-1.704;2022-08-01T10:49:08;25.70;56.80
60909;DHT22;46780;48.128;-1.704;2022-08-01T10:51:37;25.80;56.80
60909;DHT22;46780;48.128;-1.704;2022-08-01T10:54:06;25.90;56.00
60909;DHT22;46780;48.128;-1.704;2022-08-01T10:56:39;25.90;56.00
60909;DHT22;46780;48.128;-1.704;2022-08-01T10:59:06;25.90;55.60
60909;DHT22;46780;48.128;-1.704;2022-08-01T11:01:34;25.80;55.20
60909;DHT22;46780;48.128;-1.704;2022-08-01T11:04:04;25.70;55.40
60909;DHT22;46780;48.128;-1.704;2022-08-01T11:06:53;25.70;56.20
60909;DHT22;46780;48.128;-1.704;2022-08-01T11:09:38;25.80;56.10
60909;DHT22;46780;48.128;-1.704;2022-08-01T11:12:08;26.00;56.50
60909;DHT22;46780;48.128;-1.704;2022-08-01T11:17:42;26.40;54.60
60909;DHT22;46780;48.128;-1.704;2022-08-01T11:20:10;26.60;54.10
60909;DHT22;46780;48.128;-1.704;2022-08-01T11:26:20;27.10;51.80
60909;DHT22;46780;48.128;-1.704;2022-08-01T11:29:12;27.10;52.00
60909;DHT22;46780;48.128;-1.704;2022-08-01T11:31:39;27.20;51.40
60909;DHT22;46780;48.128;-1.704;2022-08-01T11:34:07;27.10;51.80
60909;DHT22;46780;48.128;-1.704;2022-08-01T11:36:33;27.20;52.10
60909;DHT22;46780;48.128;-1.704;2022-08-01T11:39:14;27.30;51.20
60909;DHT22;46780;48.128;-1.704;2022-08-01T11:41:43;27.40;52.10
60909;DHT22;46780;48.128;-1.704;2022-08-01T11:44:11;27.50;52.50
60909;DHT22;46780;48.128;-1.704;2022-08-01T11:46:53;27.90;51.20
60909;DHT22;46780;48.128;-1.704;2022-08-01T11:49:29;28.50;50.30
60909;DHT22;46780;48.128;-1.704;2022-08-01T11:52:00;28.80;50.30
60909;DHT22;46780;48.128;-1.704;2022-08-01T11:54:28;29.20;48.40
60909;DHT22;46780;48.128;-1.704;2022-08-01T11:56:56;29.40;47.60
60909;DHT22;46780;48.128;-1.704;2022-08-01T11:59:23;29.70;47.00
60909;DHT22;46780;48.128;-1.704;2022-08-01T12:01:50;30.10;45.80
60909;DHT22;46780;48.128;-1.704;2022-08-01T12:04:16;30.30;44.60
60909;DHT22;46780;48.128;-1.704;2022-08-01T12:06:44;30.30;44.20
60909;DHT22;46780;48.128;-1.704;2022-08-01T12:09:18;30.50;43.50
60909;DHT22;46780;48.128;-1.704;2022-08-01T12:11:45;30.60;43.20
60909;DHT22;46780;48.128;-1.704;2022-08-01T12:14:19;30.80;42.10
60909;DHT22;46780;48.128;-1.704;2022-08-01T12:16:52;30.70;42.30
60909;DHT22;46780;48.128;-1.704;2022-08-01T12:19:24;30.60;43.40
60909;DHT22;46780;48.128;-1.704;2022-08-01T12:22:12;30.60;43.10
60909;DHT22;46780;48.128;-1.704;2022-08-01T12:24:41;30.50;42.70
60909;DHT22;46780;48.128;-1.704;2022-08-01T12:27:08;30.40;43.60
60909;DHT22;46780;48.128;-1.704;2022-08-01T12:29:37;30.40;43.90
60909;DHT22;46780;48.128;-1.704;2022-08-01T12:32:04;30.40;43.90
60909;DHT22;46780;48.128;-1.704;2022-08-01T12:34:31;30.50;43.40
60909;DHT22;46780;48.128;-1.704;2022-08-01T12:36:59;30.50;43.60
60909;DHT22;46780;48.128;-1.704;2022-08-01T12:39:34;30.70;43.40
60909;DHT22;46780;48.128;-1.704;2022-08-01T12:42:01;30.70;42.30
60909;DHT22;46780;48.128;-1.704;2022-08-01T12:44:29;30.50;42.10
60909;DHT22;46780;48.128;-1.704;2022-08-01T12:46:56;30.30;44.20
60909;DHT22;46780;48.128;-1.704;2022-08-01T12:49:23;30.50;43.60
60909;DHT22;46780;48.128;-1.704;2022-08-01T12:51:50;30.60;42.80
60909;DHT22;46780;48.128;-1.704;2022-08-01T12:54:17;30.50;43.00
60909;DHT22;46780;48.128;-1.704;2022-08-01T12:56:45;30.50;42.50
60909;DHT22;46780;48.128;-1.704;2022-08-01T12:59:22;30.40;43.30
60909;DHT22;46780;48.128;-1.704;2022-08-01T13:01:49;30.50;43.10
60909;DHT22;46780;48.128;-1.704;2022-08-01T13:04:15;30.40;43.00
60909;DHT22;46780;48.128;-1.704;2022-08-01T13:06:42;30.30;43.60
60909;DHT22;46780;48.128;-1.704;2022-08-01T13:09:09;30.30;43.50
60909;DHT22;46780;48.128;-1.704;2022-08-01T13:11:36;30.30;43.50
60909;DHT22;46780;48.128;-1.704;2022-08-01T13:14:04;30.20;43.50
60909;DHT22;46780;48.128;-1.704;2022-08-01T13:16:30;30.20;43.90
60909;DHT22;46780;48.128;-1.704;2022-08-01T13:18:57;30.20;43.80
60909;DHT22;46780;48.128;-1.704;2022-08-01T13:21:25;30.10;44.30
60909;DHT22;46780;48.128;-1.704;2022-08-01T13:24:03;30.10;44.10
60909;DHT22;46780;48.128;-1.704;2022-08-01T13:26:40;30.10;43.90
60909;DHT22;46780;48.128;-1.704;2022-08-01T13:29:10;30.00;43.90
60909;DHT22;46780;48.128;-1.704;2022-08-01T13:31:38;29.80;44.60
60909;DHT22;46780;48.128;-1.704;2022-08-01T13:34:04;29.80;44.50
60909;DHT22;46780;48.128;-1.704;2022-08-01T13:36:31;29.90;44.80
60909;DHT22;46780;48.128;-1.704;2022-08-01T13:38:58;29.90;44.60
60909;DHT22;46780;48.128;-1.704;2022-08-01T13:41:24;29.80;44.20
60909;DHT22;46780;48.128;-1.704;2022-08-01T13:43:51;29.70;44.80
60909;DHT22;46780;48.128;-1.704;2022-08-01T13:46:19;29.70;45.40
60909;DHT22;46780;48.128;-1.704;2022-08-01T13:48:46;29.80;45.30
60909;DHT22;46780;48.128;-1.704;2022-08-01T13:51:12;29.80;44.20
60909;DHT22;46780;48.128;-1.704;2022-08-01T13:53:39;29.60;45.30
60909;DHT22;46780;48.128;-1.704;2022-08-01T13:56:05;29.60;45.30
60909;DHT22;46780;48.128;-1.704;2022-08-01T13:58:32;29.70;45.10
60909;DHT22;46780;48.128;-1.704;2022-08-01T14:00:58;29.70;45.10
60909;DHT22;46780;48.128;-1.704;2022-08-01T14:03:26;29.70;44.70
60909;DHT22;46780;48.128;-1.704;2022-08-01T14:05:56;29.50;45.10
60909;DHT22;46780;48.128;-1.704;2022-08-01T14:08:22;29.60;45.00
60909;DHT22;46780;48.128;-1.704;2022-08-01T14:10:51;29.50;45.20
60909;DHT22;46780;48.128;-1.704;2022-08-01T14:13:20;29.40;45.80
60909;DHT22;46780;48.128;-1.704;2022-08-01T14:15:47;29.40;45.90
60909;DHT22;46780;48.128;-1.704;2022-08-01T14:18:13;29.40;45.80
60909;DHT22;46780;48.128;-1.704;2022-08-01T14:20:41;29.60;45.00
60909;DHT22;46780;48.128;-1.704;2022-08-01T14:23:08;29.60;45.40
60909;DHT22;46780;48.128;-1.704;2022-08-01T14:25:35;29.70;45.30
60909;DHT22;46780;48.128;-1.704;2022-08-01T14:28:02;29.70;44.90
60909;DHT22;46780;48.128;-1.704;2022-08-01T14:30:28;29.80;44.90
60909;DHT22;46780;48.128;-1.704;2022-08-01T14:32:55;29.80;44.60
60909;DHT22;46780;48.128;-1.704;2022-08-01T14:35:22;29.80;45.90
60909;DHT22;46780;48.128;-1.704;2022-08-01T14:37:52;29.80;44.20
60909;DHT22;46780;48.128;-1.704;2022-08-01T14:40:19;29.60;44.80
60909;DHT22;46780;48.128;-1.704;2022-08-01T14:42:46;29.50;44.70
60909;DHT22;46780;48.128;-1.704;2022-08-01T14:45:14;29.50;45.10
60909;DHT22;46780;48.128;-1.704;2022-08-01T14:47:42;29.50;44.90
60909;DHT22;46780;48.128;-1.704;2022-08-01T14:50:10;29.60;45.00
60909;DHT22;46780;48.128;-1.704;2022-08-01T14:52:38;29.60;44.90
60909;DHT22;46780;48.128;-1.704;2022-08-01T14:55:08;29.60;45.00
60909;DHT22;46780;48.128;-1.704;2022-08-01T14:57:35;29.60;45.10
60909;DHT22;46780;48.128;-1.704;2022-08-01T15:00:04;29.70;45.10
60909;DHT22;46780;48.128;-1.704;2022-08-01T15:02:32;29.70;44.60
60909;DHT22;46780;48.128;-1.704;2022-08-01T15:04:58;29.70;45.00
60909;DHT22;46780;48.128;-1.704;2022-08-01T15:07:24;29.60;44.70
60909;DHT22;46780;48.128;-1.704;2022-08-01T15:09:51;29.60;44.80
60909;DHT22;46780;48.128;-1.704;2022-08-01T15:12:19;29.50;44.70
60909;DHT22;46780;48.128;-1.704;2022-08-01T15:14:45;29.50;44.80
60909;DHT22;46780;48.128;-1.704;2022-08-01T15:17:12;29.50;45.00
60909;DHT22;46780;48.128;-1.704;2022-08-01T15:19:38;29.40;44.80
60909;DHT22;46780;48.128;-1.704;2022-08-01T15:22:05;29.30;45.20
60909;DHT22;46780;48.128;-1.704;2022-08-01T15:24:35;29.30;45.60
60909;DHT22;46780;48.128;-1.704;2022-08-01T15:27:04;29.20;45.30
60909;DHT22;46780;48.128;-1.704;2022-08-01T15:29:32;29.10;45.60